»·PEaware :: N310LD KEAT-KRDD

N310LD :: KEAT-KRDD

FLIGHT INFORMATION

Flight Status: Arrived
Operator: Privately registered:
United States
More flights under this callsign
Pilot: Slade E. (12022)
Aircraft: CESSNA 310
(C310)
More flights by this aircraft type
Origin: KEAT Pangborn Meml
United States
Destination: KRDD Redding Mun
United States
More flights between these airports :: More routes between these airports
Route: OFARO2 ZAXUL ELN V25 RBL
File this flight plan on PilotEdge
Remarks:
Altitude:
(Current/Filed)
12,000ft
Speed:
(Current/Filed)
180kts
Departed: 07-Nov-20 05:21 PM
Arrived: 07-Nov-20 08:25 PM
Distance/Time
Traveled:
423nm/3:04
Distance/Time
To Go:
Arrived

Flight Plot

Page will automatically refresh every two minutes.

Flight plan parsing failed; only flown route is shown


Map Options




Map Legend


Flown Route
Filed Route
Departure Airport
Arrival Airport
Navaid (VOR, NDB)
Fix

Horizontal Profiles

Position Reports

Time Latitude Longitude Heading Altitude Ground
Speed
07-Nov-20 17:04 47.396184 -120.212222 348 1252ft 0kts
07-Nov-20 17:05 47.396184 -120.212222 348 1252ft 0kts
07-Nov-20 17:06 47.396184 -120.212222 348 1252ft 0kts
07-Nov-20 17:07 47.396184 -120.212222 348 1252ft 0kts
07-Nov-20 17:08 47.396184 -120.212222 348 1252ft 0kts
07-Nov-20 17:08 47.396184 -120.212222 348 1252ft 0kts
07-Nov-20 17:10 47.396184 -120.212222 348 1252ft 0kts
07-Nov-20 17:10 47.396184 -120.212222 348 1252ft 0kts
07-Nov-20 17:12 47.400039 -120.211857 64 1252ft 15kts
07-Nov-20 17:12 47.399876 -120.205605 134 1252ft 23kts
07-Nov-20 17:14 47.394326 -120.197386 136 1252ft 18kts
07-Nov-20 17:14 47.393620 -120.195979 42 1252ft 0kts
07-Nov-20 17:15 47.393620 -120.195979 42 1252ft 0kts
07-Nov-20 17:16 47.393620 -120.195979 42 1252ft 0kts
07-Nov-20 17:17 47.393620 -120.195979 42 1252ft 0kts
07-Nov-20 17:18 47.393620 -120.195979 42 1252ft 0kts
07-Nov-20 17:19 47.392560 -120.197808 313 1252ft 0kts
07-Nov-20 17:20 47.409754 -120.224686 320 2230ft 105kts
07-Nov-20 17:21 47.403328 -120.254532 154 3492ft 139kts
07-Nov-20 17:22 47.381988 -120.211928 118 4938ft 128kts
07-Nov-20 17:23 47.363050 -120.164694 109 6042ft 138kts
07-Nov-20 17:24 47.346201 -120.114283 116 7191ft 135kts
07-Nov-20 17:25 47.316680 -120.076180 140 8070ft 145kts
07-Nov-20 17:26 47.286871 -120.036920 152 8898ft 148kts
07-Nov-20 17:27 47.247312 -120.037377 189 9640ft 144kts
07-Nov-20 17:28 47.208092 -120.042059 182 10486ft 142kts
07-Nov-20 17:29 47.169559 -120.050337 234 11127ft 142kts
07-Nov-20 17:30 47.151523 -120.100359 245 11787ft 138kts
07-Nov-20 17:31 47.132607 -120.153957 247 12000ft 163kts
07-Nov-20 17:32 47.112269 -120.216880 252 12028ft 174kts
07-Nov-20 17:33 47.090932 -120.281995 247 12017ft 179kts
07-Nov-20 17:34 47.067109 -120.346878 245 11991ft 179kts
07-Nov-20 17:35 47.042982 -120.410799 243 11982ft 179kts
07-Nov-20 17:36 47.007211 -120.455029 181 11991ft 186kts
07-Nov-20 17:37 46.955248 -120.453883 180 11983ft 187kts
07-Nov-20 17:38 46.903205 -120.454366 181 11974ft 186kts
07-Nov-20 17:39 46.851797 -120.453142 180 12022ft 183kts
07-Nov-20 17:40 46.800636 -120.451609 180 11999ft 185kts
07-Nov-20 17:41 46.749084 -120.450044 180 11999ft 185kts
07-Nov-20 17:42 46.697645 -120.448487 180 11998ft 185kts
07-Nov-20 17:43 46.645968 -120.446930 180 12000ft 186kts
07-Nov-20 17:44 46.594366 -120.445374 180 11999ft 186kts
07-Nov-20 17:45 46.545934 -120.464330 209 12000ft 182kts
07-Nov-20 17:46 46.501124 -120.498603 210 12000ft 182kts
07-Nov-20 17:47 46.456354 -120.533344 210 12000ft 182kts
07-Nov-20 17:48 46.411776 -120.567908 210 12000ft 182kts
07-Nov-20 17:49 46.366989 -120.602567 210 12001ft 182kts
07-Nov-20 17:50 46.322289 -120.637091 210 12001ft 182kts
07-Nov-20 17:51 46.277442 -120.671643 210 12001ft 182kts
07-Nov-20 17:52 46.232721 -120.706077 210 12004ft 182kts
07-Nov-20 17:53 46.187947 -120.740468 210 12006ft 182kts
07-Nov-20 17:54 46.143203 -120.774772 210 11988ft 183kts
07-Nov-20 17:55 46.098186 -120.809221 210 11974ft 183kts
07-Nov-20 17:56 46.053506 -120.843331 210 11977ft 182kts
07-Nov-20 17:57 46.008870 -120.877372 210 11981ft 181kts
07-Nov-20 17:58 45.964322 -120.911246 212 11984ft 180kts
07-Nov-20 17:59 45.920120 -120.944852 212 11988ft 179kts
07-Nov-20 18:00 45.875934 -120.978363 212 11991ft 179kts
07-Nov-20 18:01 45.831936 -121.011658 212 11994ft 179kts
07-Nov-20 18:02 45.787936 -121.044907 212 11996ft 179kts
07-Nov-20 18:03 45.743806 -121.078177 213 11997ft 179kts
07-Nov-20 18:04 45.697157 -121.102568 192 11999ft 185kts
07-Nov-20 18:05 45.645930 -121.110386 191 12000ft 185kts
07-Nov-20 18:06 45.594593 -121.117722 191 11999ft 186kts
07-Nov-20 18:07 45.543273 -121.125001 191 11999ft 186kts
07-Nov-20 18:08 45.491760 -121.132285 191 11998ft 186kts
07-Nov-20 18:09 45.440380 -121.139545 191 11997ft 186kts
07-Nov-20 18:10 45.388935 -121.146789 191 11994ft 186kts
07-Nov-20 18:11 45.337422 -121.154042 191 11992ft 186kts
07-Nov-20 18:12 45.286039 -121.161251 192 11988ft 186kts
07-Nov-20 18:13 45.234617 -121.168447 192 11991ft 186kts
07-Nov-20 18:14 45.183033 -121.175683 192 11991ft 186kts
07-Nov-20 18:15 45.131610 -121.182852 192 11988ft 186kts
07-Nov-20 18:16 45.080163 -121.190010 192 11985ft 186kts
07-Nov-20 18:17 45.028811 -121.197172 192 11982ft 186kts
07-Nov-20 18:18 44.977302 -121.204320 193 11982ft 186kts
07-Nov-20 18:19 44.925776 -121.211449 193 11979ft 186kts
07-Nov-20 18:20 44.874399 -121.218538 193 11977ft 186kts
07-Nov-20 18:21 44.822978 -121.225646 193 11975ft 185kts
07-Nov-20 18:22 44.771788 -121.232693 194 11973ft 185kts
07-Nov-20 18:23 44.720462 -121.239745 194 11973ft 185kts
07-Nov-20 18:24 44.669193 -121.246770 194 11972ft 185kts
07-Nov-20 18:25 44.617708 -121.253838 194 11971ft 185kts
07-Nov-20 18:26 44.566376 -121.260865 195 11969ft 186kts
07-Nov-20 18:27 44.515042 -121.267869 195 11965ft 185kts
07-Nov-20 18:28 44.463607 -121.274902 195 11959ft 185kts
07-Nov-20 18:29 44.412190 -121.281904 195 11952ft 186kts
07-Nov-20 18:30 44.360740 -121.288881 196 11946ft 186kts
07-Nov-20 18:31 44.309180 -121.295893 196 11942ft 186kts
07-Nov-20 18:32 44.257650 -121.302881 197 11938ft 186kts
07-Nov-20 18:33 44.206848 -121.313137 199 11942ft 184kts
07-Nov-20 18:34 44.156192 -121.323680 199 11944ft 184kts
07-Nov-20 18:35 44.105433 -121.334264 199 11946ft 184kts
07-Nov-20 18:36 44.054843 -121.344781 199 11951ft 184kts
07-Nov-20 18:37 44.004090 -121.355313 200 11957ft 184kts
07-Nov-20 18:38 43.953321 -121.365832 197 11968ft 184kts
07-Nov-20 18:39 43.922430 -121.370317 191 11494ft 177kts
07-Nov-20 18:40 43.903101 -121.373779 193 11530ft 146kts
07-Nov-20 18:41 43.867110 -121.382897 189 11864ft 121kts
07-Nov-20 18:42 43.837861 -121.389132 189 12227ft 123kts
07-Nov-20 18:43 43.798668 -121.397535 188 12271ft 160kts
07-Nov-20 18:44 43.752329 -121.407207 188 12266ft 173kts
07-Nov-20 18:45 43.704043 -121.417155 188 12265ft 177kts
07-Nov-20 18:46 43.664278 -121.424344 182 11929ft 148kts
07-Nov-20 18:47 43.654254 -121.427813 172 10416ft 127kts
07-Nov-20 18:48 43.643931 -121.427945 182 9538ft 105kts
07-Nov-20 18:49 43.635256 -121.428327 182 9074ft 106kts
07-Nov-20 19:07 43.667778 -121.425081 199 11696ft 188kts
07-Nov-20 19:08 43.621512 -121.434113 200 11695ft 181kts
07-Nov-20 19:09 43.577172 -121.443168 200 11693ft 180kts
07-Nov-20 19:10 43.527743 -121.453270 200 11694ft 180kts
07-Nov-20 19:10 43.487376 -121.461341 201 11996ft 166kts
07-Nov-20 19:11 43.440182 -121.471156 200 12033ft 177kts
07-Nov-20 19:12 43.390993 -121.481130 200 12034ft 181kts
07-Nov-20 19:13 43.341032 -121.491271 199 12037ft 181kts
07-Nov-20 19:14 43.291069 -121.501389 198 12035ft 181kts
07-Nov-20 19:15 43.241301 -121.511446 198 12037ft 181kts
07-Nov-20 19:16 43.191431 -121.521517 198 12038ft 182kts
07-Nov-20 19:17 43.141313 -121.531621 198 12038ft 182kts
07-Nov-20 19:18 43.091251 -121.541700 198 12039ft 182kts
07-Nov-20 19:19 43.041068 -121.551782 198 12039ft 183kts
07-Nov-20 19:20 42.990779 -121.561868 199 12039ft 183kts
07-Nov-20 19:21 42.940245 -121.571992 198 12039ft 183kts
07-Nov-20 19:22 42.889679 -121.582103 198 12039ft 183kts
07-Nov-20 19:23 42.839339 -121.592145 198 12039ft 183kts
07-Nov-20 19:24 42.788925 -121.602177 199 12050ft 182kts
07-Nov-20 19:25 42.738843 -121.611583 200 12093ft 180kts
07-Nov-20 19:26 42.688615 -121.621902 198 12080ft 183kts
07-Nov-20 19:27 42.638844 -121.633861 200 12086ft 183kts
07-Nov-20 19:28 42.588166 -121.645898 199 12026ft 186kts
07-Nov-20 19:29 42.536733 -121.655154 198 12010ft 186kts
07-Nov-20 19:30 42.485058 -121.664122 196 11995ft 188kts
07-Nov-20 19:31 42.433864 -121.674494 200 12025ft 184kts
07-Nov-20 19:32 42.382450 -121.684318 199 11990ft 186kts
07-Nov-20 19:33 42.331144 -121.694002 198 12012ft 186kts
07-Nov-20 19:34 42.279749 -121.703069 199 12018ft 187kts
07-Nov-20 19:35 42.228534 -121.714001 199 12023ft 187kts
07-Nov-20 19:36 42.177163 -121.724474 198 12050ft 187kts
07-Nov-20 19:37 42.124326 -121.728353 192 12044ft 191kts
07-Nov-20 19:38 42.071031 -121.731523 192 12011ft 192kts
07-Nov-20 19:39 42.017478 -121.733311 190 11987ft 194kts
07-Nov-20 19:40 41.963614 -121.733919 192 11983ft 192kts
07-Nov-20 19:41 41.910481 -121.735469 191 12023ft 192kts
07-Nov-20 19:42 41.857207 -121.736868 191 12032ft 191kts
07-Nov-20 19:43 41.803963 -121.738935 193 12046ft 189kts
07-Nov-20 19:44 41.750624 -121.739357 188 12058ft 193kts
07-Nov-20 19:45 41.697468 -121.740760 190 12056ft 192kts
07-Nov-20 19:46 41.644145 -121.741597 191 12077ft 191kts
07-Nov-20 19:47 41.590636 -121.742494 190 12038ft 193kts
07-Nov-20 19:48 41.536848 -121.743697 190 12022ft 192kts
07-Nov-20 19:49 41.483177 -121.742574 199 11988ft 189kts
07-Nov-20 19:50 41.434078 -121.760927 208 12018ft 182kts
07-Nov-20 19:51 41.385138 -121.778975 206 12042ft 183kts
07-Nov-20 19:52 41.335998 -121.797436 205 12049ft 183kts
07-Nov-20 19:53 41.286950 -121.815366 206 12090ft 182kts
07-Nov-20 19:54 41.237518 -121.834033 205 12060ft 185kts
07-Nov-20 19:55 41.188075 -121.852556 206 12056ft 185kts
07-Nov-20 19:56 41.138511 -121.870755 204 12065ft 185kts
07-Nov-20 19:57 41.088509 -121.888975 204 12024ft 186kts
07-Nov-20 19:58 41.038076 -121.905785 203 11992ft 188kts
07-Nov-20 19:59 40.987354 -121.922765 205 11981ft 187kts
07-Nov-20 20:00 40.937628 -121.942061 206 11968ft 186kts
07-Nov-20 20:01 40.887841 -121.960537 204 12009ft 186kts
07-Nov-20 20:02 40.837812 -121.977982 204 11991ft 186kts
07-Nov-20 20:03 40.787030 -121.994653 201 11969ft 188kts
07-Nov-20 20:04 40.736491 -122.013239 204 11754ft 193kts
07-Nov-20 20:05 40.685188 -122.034252 205 11303ft 191kts
07-Nov-20 20:06 40.633162 -122.051393 197 10687ft 192kts
07-Nov-20 20:07 40.582104 -122.070029 201 10018ft 190kts
07-Nov-20 20:08 40.531224 -122.089443 197 8972ft 187kts
07-Nov-20 20:09 40.481753 -122.106977 198 8020ft 175kts
07-Nov-20 20:10 40.435861 -122.121955 192 7319ft 173kts
07-Nov-20 20:11 40.394338 -122.147010 227 6601ft 166kts
07-Nov-20 20:12 40.362113 -122.192515 225 5685ft 172kts
07-Nov-20 20:13 40.328714 -122.237059 227 5066ft 167kts
07-Nov-20 20:14 40.297157 -122.283138 224 4045ft 170kts
07-Nov-20 20:15 40.265460 -122.326276 218 3456ft 153kts
07-Nov-20 20:16 40.253383 -122.301106 46 3309ft 148kts
07-Nov-20 20:17 40.295708 -122.295008 6 2987ft 169kts
07-Nov-20 20:18 40.336277 -122.294375 2 2940ft 130kts
07-Nov-20 20:19 40.372149 -122.294060 7 2833ft 128kts
07-Nov-20 20:20 40.407427 -122.295106 358 2454ft 124kts
07-Nov-20 20:21 40.439694 -122.293831 1 1718ft 114kts
07-Nov-20 20:22 40.468447 -122.294502 357 1157ft 89kts
07-Nov-20 20:23 40.492881 -122.294907 356 691ft 84kts
07-Nov-20 20:24 40.507014 -122.294925 357 493ft 0kts

Navigation Log

Ident Type
Flight plan parsing failed, navigation log unavailable